Lerna, Illinois
Current Conditions -  °F | °C
As of 1:53 AM on Friday 24 Oct 2014 (Local Time) from KMTO Reporting Station
Overcast Overcast  
Wind Chill: 52°   Ceiling: 2700
Heat Index: 52°   Visibility: 10mi
Dew Point: 43°   Wind: 6mph
Humidity: 71%   Direction: 200°SSW
Pressure: 30.08"   Gusts: NA
Location:  39.42°N, 88.29°W
Report Text: KMTO 240653Z AUTO 20005KT 10SM OVC027 11/06 A3008 RMK AO2 SLP186 T01110061
Loading
Personal Weather Stations






























Interactive Weather Map
Tropical Storm Tracking
New forecast layout! Learn more

10-Day Weather Forecast

Advertisements
Track Severe Weather on mobile